createdAt,value
2022-10-02T00:02:37.450Z,11.90
2022-10-02T00:05:16.262Z,11.80
2022-10-02T00:07:58.420Z,11.80
2022-10-02T00:10:41.120Z,11.80
2022-10-02T00:13:28.801Z,11.80
2022-10-02T00:15:56.042Z,11.80
2022-10-02T00:18:25.595Z,11.80
2022-10-02T00:21:05.315Z,11.80
2022-10-02T00:23:50.075Z,11.80
2022-10-02T00:26:31.456Z,11.90
2022-10-02T00:29:04.108Z,11.90
2022-10-02T00:31:57.534Z,11.90
2022-10-02T00:35:00.611Z,11.90
2022-10-02T00:38:09.473Z,11.90
2022-10-02T00:41:09.248Z,11.90
2022-10-02T00:43:59.099Z,11.90
2022-10-02T00:46:47.549Z,11.90
2022-10-02T00:49:19.812Z,11.90
2022-10-02T00:52:09.452Z,11.90
2022-10-02T00:55:09.985Z,12.00
2022-10-02T00:57:58.476Z,12.00
2022-10-02T01:00:25.214Z,11.90
2022-10-02T01:03:16.500Z,12.00
2022-10-02T01:05:43.110Z,12.00
2022-10-02T01:08:09.808Z,11.90
2022-10-02T01:10:38.094Z,12.00
2022-10-02T01:13:06.506Z,12.00
2022-10-02T01:15:36.901Z,12.00
2022-10-02T01:18:04.226Z,12.00
2022-10-02T01:20:37.652Z,12.00
2022-10-02T01:23:19.273Z,11.90
2022-10-02T01:25:46.137Z,11.90
2022-10-02T01:28:12.927Z,11.90
2022-10-02T01:30:44.149Z,11.90
2022-10-02T01:33:13.096Z,11.90
2022-10-02T01:35:40.325Z,11.90
2022-10-02T01:38:12.280Z,12.00
2022-10-02T01:40:40.408Z,12.00
2022-10-02T01:43:38.686Z,12.00
2022-10-02T01:46:21.577Z,12.00
2022-10-02T01:48:59.183Z,12.00
2022-10-02T01:51:25.631Z,12.10
2022-10-02T01:54:09.209Z,12.10
2022-10-02T01:56:55.342Z,12.10
2022-10-02T01:59:43.713Z,12.00
2022-10-02T02:02:29.616Z,12.10
2022-10-02T02:05:20.400Z,12.10
2022-10-02T02:07:52.969Z,12.10
2022-10-02T02:10:23.918Z,12.10
2022-10-02T02:13:03.394Z,12.10
2022-10-02T02:15:37.059Z,12.10
2022-10-02T02:18:16.032Z,12.10
2022-10-02T02:20:47.143Z,12.10
2022-10-02T02:23:20.094Z,12.10
2022-10-02T02:25:51.974Z,12.20
2022-10-02T02:28:21.332Z,12.20
2022-10-02T02:30:50.948Z,12.20
2022-10-02T02:33:23.952Z,12.20
2022-10-02T02:36:00.911Z,12.30
2022-10-02T02:38:38.910Z,12.30
2022-10-02T02:41:19.905Z,12.30
2022-10-02T02:43:56.609Z,12.30
2022-10-02T02:46:59.350Z,12.30
2022-10-02T02:49:29.970Z,12.30
2022-10-02T02:51:59.513Z,12.40
2022-10-02T02:54:44.290Z,12.40
2022-10-02T02:57:13.102Z,12.40
2022-10-02T02:59:44.164Z,12.50
2022-10-02T03:02:10.757Z,12.50
2022-10-02T03:04:37.296Z,12.50
2022-10-02T03:07:05.216Z,12.50
2022-10-02T03:09:33.352Z,12.50
2022-10-02T03:12:22.248Z,12.50
2022-10-02T03:15:05.748Z,12.60
2022-10-02T03:17:57.993Z,12.50
2022-10-02T03:20:45.133Z,12.50
2022-10-02T03:23:19.400Z,12.50
2022-10-02T03:25:53.019Z,12.50
2022-10-02T03:28:54.851Z,12.40
2022-10-02T03:31:23.540Z,12.40
2022-10-02T03:33:53.504Z,12.40
2022-10-02T03:36:24.360Z,12.40
2022-10-02T03:39:19.973Z,12.40
2022-10-02T03:41:40.737Z,12.40
2022-10-02T03:44:07.281Z,12.40
2022-10-02T03:46:34.163Z,12.50
2022-10-02T03:49:01.047Z,12.50
2022-10-02T03:51:27.633Z,12.50
2022-10-02T03:53:54.284Z,12.50
2022-10-02T03:56:40.179Z,12.60
2022-10-02T03:59:14.662Z,12.60
2022-10-02T04:01:49.297Z,12.60
2022-10-02T04:04:23.132Z,12.70
2022-10-02T04:07:02.494Z,12.70
2022-10-02T04:09:42.327Z,12.70
2022-10-02T04:12:21.321Z,12.70
2022-10-02T04:15:20.993Z,12.80
2022-10-02T04:18:00.053Z,12.80
2022-10-02T04:20:51.709Z,12.70
2022-10-02T04:23:23.668Z,12.80
2022-10-02T04:25:57.277Z,12.70
2022-10-02T04:28:30.771Z,12.80
2022-10-02T04:30:57.431Z,12.70
2022-10-02T04:33:25.444Z,12.80
2022-10-02T04:36:17.560Z,12.80
2022-10-02T04:39:07.371Z,12.80
2022-10-02T04:42:04.745Z,12.90
2022-10-02T04:44:43.347Z,12.90
2022-10-02T04:47:32.261Z,12.90
2022-10-02T04:50:38.488Z,12.90
2022-10-02T04:53:21.097Z,12.90
2022-10-02T04:55:57.440Z,12.90
2022-10-02T04:58:54.157Z,13.00
2022-10-02T05:01:42.354Z,12.90
2022-10-02T05:04:35.681Z,13.00
2022-10-02T05:07:24.150Z,13.00
2022-10-02T05:10:14.137Z,13.00
2022-10-02T05:12:52.788Z,12.90
2022-10-02T05:15:44.267Z,12.90
2022-10-02T05:18:37.554Z,12.90
2022-10-02T05:21:09.780Z,12.80
2022-10-02T05:23:43.602Z,12.80
2022-10-02T05:26:43.544Z,12.80
2022-10-02T05:29:27.631Z,12.80
2022-10-02T05:32:06.350Z,12.80
2022-10-02T05:34:40.320Z,12.70
2022-10-02T05:37:33.580Z,12.70
2022-10-02T05:40:19.057Z,12.70
2022-10-02T05:43:08.300Z,12.70
2022-10-02T05:45:37.127Z,12.70
2022-10-02T05:48:21.264Z,12.70
2022-10-02T05:50:52.940Z,12.70
2022-10-02T05:53:33.350Z,12.70
2022-10-02T05:56:14.757Z,12.70
2022-10-02T05:59:19.756Z,12.70
2022-10-02T06:01:48.606Z,12.70
2022-10-02T06:04:18.373Z,12.70
2022-10-02T06:06:51.367Z,12.70
2022-10-02T06:09:45.214Z,12.70
2022-10-02T06:12:19.394Z,12.70
2022-10-02T06:14:57.736Z,12.70
2022-10-02T06:17:28.739Z,12.70
2022-10-02T06:20:03.787Z,12.70
2022-10-02T06:22:39.965Z,12.70
2022-10-02T06:25:16.873Z,12.70
2022-10-02T06:28:01.438Z,12.70
2022-10-02T06:30:31.159Z,12.70
2022-10-02T06:33:09.472Z,12.70
2022-10-02T06:35:57.829Z,12.70
2022-10-02T06:38:46.735Z,12.70
2022-10-02T06:41:28.294Z,12.70
2022-10-02T06:44:18.885Z,12.70
2022-10-02T06:47:15.352Z,12.70
2022-10-02T06:50:15.727Z,12.70
2022-10-02T06:53:18.301Z,12.80
2022-10-02T06:56:11.140Z,12.70
2022-10-02T06:59:07.939Z,12.80
2022-10-02T07:01:57.635Z,12.80
2022-10-02T07:04:48.063Z,12.80
2022-10-02T07:07:28.715Z,12.80
2022-10-02T07:10:04.215Z,12.80
2022-10-02T07:12:47.539Z,12.80
2022-10-02T07:15:26.136Z,12.80
2022-10-02T07:18:11.646Z,12.80
2022-10-02T07:21:01.005Z,12.80
2022-10-02T07:23:33.582Z,12.80
2022-10-02T07:26:23.900Z,12.90
2022-10-02T07:29:14.688Z,12.80
2022-10-02T07:32:11.993Z,12.90
2022-10-02T07:35:17.301Z,12.90
2022-10-02T07:38:02.356Z,12.90
2022-10-02T07:40:55.979Z,12.90
2022-10-02T07:44:00.546Z,12.90
2022-10-02T07:46:58.669Z,12.80
2022-10-02T07:49:50.636Z,12.90
2022-10-02T07:52:59.940Z,12.90
2022-10-02T07:55:27.052Z,12.90
2022-10-02T07:58:06.200Z,12.90
2022-10-02T08:00:39.444Z,12.90
2022-10-02T08:03:22.568Z,12.90
2022-10-02T08:05:52.712Z,12.90
2022-10-02T08:08:49.237Z,12.90
2022-10-02T08:11:33.732Z,12.90
2022-10-02T08:14:18.153Z,12.90
2022-10-02T08:16:57.104Z,12.90
2022-10-02T08:19:35.167Z,12.80
2022-10-02T08:22:17.680Z,12.90
2022-10-02T08:24:51.588Z,12.90
2022-10-02T08:27:41.995Z,13.00
2022-10-02T08:30:13.198Z,12.90
2022-10-02T08:32:39.652Z,12.90
2022-10-02T08:35:12.986Z,13.00
2022-10-02T08:38:25.147Z,13.00
2022-10-02T08:41:20.818Z,13.00
2022-10-02T08:44:02.819Z,13.00
2022-10-02T08:47:05.311Z,13.10
2022-10-02T08:49:56.754Z,13.10
2022-10-02T08:52:53.650Z,13.10
2022-10-02T08:56:03.288Z,13.10
2022-10-02T08:59:04.001Z,13.20
2022-10-02T09:01:50.534Z,13.20
2022-10-02T09:04:23.288Z,13.20
2022-10-02T09:07:00.212Z,13.30
2022-10-02T09:10:00.158Z,13.20
2022-10-02T09:12:59.557Z,13.20
2022-10-02T09:15:26.105Z,13.20
2022-10-02T09:18:34.233Z,13.30
2022-10-02T09:21:17.684Z,13.30
2022-10-02T09:24:19.988Z,13.30
2022-10-02T09:27:24.193Z,13.30
2022-10-02T09:30:13.352Z,13.30
2022-10-02T09:32:57.527Z,13.30
2022-10-02T09:35:45.104Z,13.30
2022-10-02T09:38:39.418Z,13.30
2022-10-02T09:41:35.100Z,13.30
2022-10-02T09:44:44.738Z,13.30
2022-10-02T09:47:41.683Z,13.30
2022-10-02T09:50:36.593Z,13.30
2022-10-02T09:53:20.711Z,13.30
2022-10-02T09:56:05.904Z,13.30
2022-10-02T09:58:56.436Z,13.40
2022-10-02T10:01:49.039Z,13.40
2022-10-02T10:05:04.967Z,13.50
2022-10-02T10:08:14.175Z,13.50
2022-10-02T10:11:02.154Z,13.50
2022-10-02T10:13:55.846Z,13.50
2022-10-02T10:16:28.381Z,13.60
2022-10-02T10:19:13.731Z,13.60
2022-10-02T10:22:26.736Z,13.60
2022-10-02T10:25:28.244Z,13.60
2022-10-02T10:28:09.910Z,13.70
2022-10-02T10:31:23.649Z,13.70
2022-10-02T10:34:23.996Z,13.80
2022-10-02T10:37:26.827Z,13.80
2022-10-02T10:39:59.445Z,13.90
2022-10-02T10:43:08.067Z,13.80
2022-10-02T10:45:43.402Z,13.90
2022-10-02T10:48:30.366Z,13.80
2022-10-02T10:51:19.579Z,13.90
2022-10-02T10:53:56.197Z,13.90
2022-10-02T10:56:36.905Z,13.90
2022-10-02T10:59:45.648Z,13.90
2022-10-02T11:02:40.477Z,13.80
2022-10-02T11:05:34.604Z,13.80
2022-10-02T11:08:50.594Z,13.80
2022-10-02T11:11:31.846Z,13.80
2022-10-02T11:14:29.617Z,13.90
2022-10-02T11:17:39.714Z,13.90
2022-10-02T11:20:31.570Z,13.90
2022-10-02T11:23:15.954Z,13.90
2022-10-02T11:26:14.975Z,13.80
2022-10-02T11:29:21.134Z,13.80
2022-10-02T11:32:16.891Z,13.80
2022-10-02T11:35:19.391Z,13.90
2022-10-02T11:38:31.212Z,13.90
2022-10-02T11:41:12.112Z,13.90
2022-10-02T11:43:58.275Z,14.00
2022-10-02T11:46:53.035Z,14.00
2022-10-02T11:50:01.073Z,13.90
2022-10-02T11:53:04.104Z,13.90
2022-10-02T11:56:00.816Z,13.80
2022-10-02T11:58:45.296Z,13.90
2022-10-02T12:01:36.688Z,13.90
2022-10-02T12:04:22.198Z,13.90
2022-10-02T12:07:29.901Z,14.10
2022-10-02T12:10:21.097Z,14.10
2022-10-02T12:13:29.021Z,14.20
2022-10-02T12:16:12.348Z,14.20
2022-10-02T12:19:00.533Z,14.20
2022-10-02T12:21:55.003Z,14.20
2022-10-02T12:25:01.713Z,14.10
2022-10-02T12:27:45.312Z,14.00
2022-10-02T12:30:27.215Z,14.00
2022-10-02T12:33:15.444Z,14.10
2022-10-02T12:35:50.877Z,14.20
2022-10-02T12:38:52.338Z,14.20
2022-10-02T12:41:55.701Z,14.30
2022-10-02T12:44:43.662Z,14.40
2022-10-02T12:47:40.250Z,14.60
2022-10-02T12:50:54.918Z,14.70
2022-10-02T12:53:53.084Z,14.70
2022-10-02T12:56:38.747Z,14.70
2022-10-02T12:59:28.624Z,14.70
2022-10-02T13:02:06.460Z,14.60
2022-10-02T13:04:57.936Z,14.60
2022-10-02T13:08:01.691Z,14.60
2022-10-02T13:11:00.912Z,14.60
2022-10-02T13:13:44.058Z,14.60
2022-10-02T13:16:25.762Z,14.60
2022-10-02T13:19:00.950Z,14.60
2022-10-02T13:21:40.291Z,14.60
2022-10-02T13:24:26.108Z,14.60
2022-10-02T13:27:18.467Z,14.60
2022-10-02T13:29:51.803Z,14.60
2022-10-02T13:32:18.228Z,14.60
2022-10-02T13:35:05.747Z,14.70
2022-10-02T13:37:38.412Z,14.70
2022-10-02T13:40:21.814Z,14.70
2022-10-02T13:43:20.170Z,14.70
2022-10-02T13:46:02.485Z,14.60
2022-10-02T13:48:48.093Z,14.60
2022-10-02T13:51:21.926Z,14.70
2022-10-02T13:54:30.286Z,14.70
2022-10-02T13:57:29.209Z,14.70
2022-10-02T14:00:08.034Z,14.70
2022-10-02T14:03:17.436Z,14.70
2022-10-02T14:05:55.676Z,14.80
2022-10-02T14:08:46.458Z,14.80
2022-10-02T14:11:50.299Z,14.80
2022-10-02T14:14:29.016Z,14.90
2022-10-02T14:17:13.057Z,14.90
2022-10-02T14:20:04.823Z,15.00
2022-10-02T14:22:37.353Z,15.10
2022-10-02T14:25:44.446Z,15.10
2022-10-02T14:28:39.138Z,15.20
2022-10-02T14:31:09.726Z,15.10
2022-10-02T14:33:45.617Z,15.00
2022-10-02T14:36:19.160Z,14.80
2022-10-02T14:39:01.185Z,14.80
2022-10-02T14:41:58.983Z,14.70
2022-10-02T14:44:32.027Z,14.70
2022-10-02T14:47:29.521Z,14.70
2022-10-02T14:50:01.882Z,14.70
2022-10-02T14:52:51.307Z,14.70
2022-10-02T14:55:42.867Z,14.80
2022-10-02T14:58:15.301Z,14.80
2022-10-02T15:00:53.787Z,14.90
2022-10-02T15:03:36.375Z,14.80
2022-10-02T15:06:21.654Z,14.80
2022-10-02T15:09:06.272Z,14.80
2022-10-02T15:11:36.112Z,14.70
2022-10-02T15:14:17.312Z,14.70
2022-10-02T15:17:13.272Z,14.70
2022-10-02T15:19:50.153Z,14.60
2022-10-02T15:22:31.544Z,14.60
2022-10-02T15:25:06.892Z,14.60
2022-10-02T15:27:52.050Z,14.60
2022-10-02T15:30:21.792Z,14.60
2022-10-02T15:33:13.299Z,14.60
2022-10-02T15:35:52.008Z,14.60
2022-10-02T15:38:33.380Z,14.60
2022-10-02T15:41:11.816Z,14.50
2022-10-02T15:44:06.650Z,14.50
2022-10-02T15:47:14.274Z,14.50
2022-10-02T15:50:01.892Z,14.40
2022-10-02T15:52:59.549Z,14.30
2022-10-02T15:55:35.137Z,14.30
2022-10-02T15:58:18.295Z,14.30
2022-10-02T16:01:11.116Z,14.20
2022-10-02T16:03:50.786Z,14.20
2022-10-02T16:06:53.430Z,14.20
2022-10-02T16:09:52.470Z,14.20
2022-10-02T16:12:43.892Z,14.10
2022-10-02T16:15:17.875Z,14.10
2022-10-02T16:18:02.573Z,14.10
2022-10-02T16:20:37.657Z,14.10
2022-10-02T16:23:38.322Z,14.10
2022-10-02T16:26:28.970Z,14.00
2022-10-02T16:29:03.999Z,14.00
2022-10-02T16:32:01.886Z,14.00
2022-10-02T16:34:28.352Z,13.90
2022-10-02T16:37:04.744Z,13.90
2022-10-02T16:39:39.616Z,13.80
2022-10-02T16:42:34.377Z,13.80
2022-10-02T16:45:19.242Z,13.80
2022-10-02T16:47:51.877Z,13.70
2022-10-02T16:50:28.665Z,13.70
2022-10-02T16:53:04.095Z,13.70
2022-10-02T16:55:41.964Z,13.60
2022-10-02T16:58:30.993Z,13.60
2022-10-02T17:01:07.093Z,13.60
2022-10-02T17:03:47.140Z,13.50
2022-10-02T17:06:32.970Z,13.50
2022-10-02T17:09:14.574Z,13.50
2022-10-02T17:12:29.224Z,13.50
2022-10-02T17:15:34.360Z,13.40
2022-10-02T17:18:13.296Z,13.30
2022-10-02T17:20:46.230Z,13.30
2022-10-02T17:23:36.916Z,13.20
2022-10-02T17:26:10.860Z,13.20
2022-10-02T17:28:57.290Z,13.10
2022-10-02T17:31:38.614Z,13.10
2022-10-02T17:34:21.941Z,13.00
2022-10-02T17:37:09.531Z,12.90
2022-10-02T17:40:02.576Z,12.80
2022-10-02T17:42:53.863Z,12.70
2022-10-02T17:45:52.365Z,12.60
2022-10-02T17:48:27.030Z,12.50
2022-10-02T17:50:56.325Z,12.40
2022-10-02T17:53:50.963Z,12.40
2022-10-02T17:56:29.446Z,12.30
2022-10-02T17:59:10.382Z,12.30
2022-10-02T18:01:45.746Z,12.30
2022-10-02T18:04:15.300Z,12.30
2022-10-02T18:06:44.925Z,12.20
2022-10-02T18:09:29.896Z,12.20
2022-10-02T18:12:18.364Z,12.20
2022-10-02T18:15:06.936Z,12.20
2022-10-02T18:17:45.337Z,12.20
2022-10-02T18:20:34.181Z,12.10
2022-10-02T18:23:25.555Z,12.00
2022-10-02T18:26:18.065Z,12.00
2022-10-02T18:28:51.495Z,12.00
2022-10-02T18:31:51.059Z,11.90
2022-10-02T18:34:43.545Z,11.90
2022-10-02T18:37:43.704Z,11.90
2022-10-02T18:40:31.744Z,11.90
2022-10-02T18:43:12.347Z,12.00
2022-10-02T18:45:55.842Z,12.00
2022-10-02T18:48:51.693Z,12.10
2022-10-02T18:51:45.442Z,12.10
2022-10-02T18:54:17.848Z,12.20
2022-10-02T18:57:19.503Z,12.20
2022-10-02T19:00:18.201Z,12.20
2022-10-02T19:03:21.817Z,12.10
2022-10-02T19:05:57.998Z,12.10
2022-10-02T19:08:50.771Z,12.20
2022-10-02T19:11:19.044Z,12.20
2022-10-02T19:13:48.827Z,12.20
2022-10-02T19:16:25.964Z,12.30
2022-10-02T19:19:21.328Z,12.40
2022-10-02T19:21:48.404Z,12.40
2022-10-02T19:24:18.957Z,12.50
2022-10-02T19:26:51.412Z,12.50
2022-10-02T19:29:37.450Z,12.50
2022-10-02T19:32:18.906Z,12.60
2022-10-02T19:34:55.149Z,12.60
2022-10-02T19:37:23.232Z,12.60
2022-10-02T19:39:55.898Z,12.60
2022-10-02T19:42:37.239Z,12.60
2022-10-02T19:45:07.921Z,12.60
2022-10-02T19:47:49.105Z,12.70
2022-10-02T19:50:44.251Z,12.60
2022-10-02T19:53:21.601Z,12.60
2022-10-02T19:55:59.370Z,12.60
2022-10-02T19:58:40.304Z,12.60
2022-10-02T20:01:15.802Z,12.60
2022-10-02T20:03:43.629Z,12.70
2022-10-02T20:06:21.011Z,12.80
2022-10-02T20:08:57.714Z,12.80
2022-10-02T20:11:37.741Z,12.80
2022-10-02T20:14:13.245Z,12.80
2022-10-02T20:16:58.522Z,12.80
2022-10-02T20:19:30.044Z,12.70
2022-10-02T20:22:00.061Z,12.70
2022-10-02T20:24:38.784Z,12.60
2022-10-02T20:27:17.249Z,12.60
2022-10-02T20:29:52.596Z,12.50
2022-10-02T20:32:34.541Z,12.40
2022-10-02T20:35:14.811Z,12.40
2022-10-02T20:37:43.054Z,12.30
2022-10-02T20:40:20.261Z,12.20
2022-10-02T20:43:05.329Z,12.10
2022-10-02T20:45:43.981Z,12.10
2022-10-02T20:49:06.946Z,12.10
2022-10-02T20:52:08.742Z,12.00
2022-10-02T20:54:45.587Z,12.00
2022-10-02T20:58:05.979Z,11.90
2022-10-02T21:00:54.273Z,11.90
2022-10-02T21:03:26.718Z,11.80
2022-10-02T21:06:39.666Z,11.80
2022-10-02T21:09:27.378Z,11.70
2022-10-02T21:12:28.868Z,11.60
2022-10-02T21:15:10.015Z,11.50
2022-10-02T21:18:00.760Z,11.50
2022-10-02T21:20:52.022Z,11.40
2022-10-02T21:23:44.543Z,11.40
2022-10-02T21:26:26.892Z,11.30
2022-10-02T21:29:15.341Z,11.30
2022-10-02T21:32:02.662Z,11.30
2022-10-02T21:34:35.403Z,11.30
2022-10-02T21:37:17.551Z,11.30
2022-10-02T21:40:19.026Z,11.20
2022-10-02T21:43:04.083Z,11.10
2022-10-02T21:46:08.144Z,11.10
2022-10-02T21:49:24.045Z,11.00
2022-10-02T21:51:56.460Z,11.00
2022-10-02T21:54:58.084Z,11.00
2022-10-02T21:57:49.295Z,11.00
2022-10-02T22:00:25.680Z,11.00
2022-10-02T22:03:13.900Z,10.90
2022-10-02T22:06:08.720Z,10.90
2022-10-02T22:08:50.418Z,10.80
2022-10-02T22:11:24.720Z,10.70
2022-10-02T22:14:04.446Z,10.60
2022-10-02T22:16:39.026Z,10.60
2022-10-02T22:19:20.789Z,10.50
2022-10-02T22:22:02.467Z,10.50
2022-10-02T22:24:46.651Z,10.50
2022-10-02T22:27:45.415Z,10.50
2022-10-02T22:30:56.072Z,10.60
2022-10-02T22:33:55.824Z,10.60
2022-10-02T22:36:50.006Z,10.70
2022-10-02T22:39:40.836Z,10.70
2022-10-02T22:42:31.706Z,10.80
2022-10-02T22:45:24.657Z,10.70
2022-10-02T22:48:07.058Z,10.70
2022-10-02T22:50:44.433Z,10.70
2022-10-02T22:53:24.185Z,10.70
2022-10-02T22:55:53.844Z,10.70
2022-10-02T22:58:36.904Z,10.70
2022-10-02T23:01:27.891Z,10.80
2022-10-02T23:03:57.449Z,10.80
2022-10-02T23:06:30.751Z,10.70
2022-10-02T23:09:20.734Z,10.80
2022-10-02T23:11:55.026Z,10.70
2022-10-02T23:14:40.881Z,10.70
2022-10-02T23:17:18.225Z,10.70
2022-10-02T23:19:55.576Z,10.70
2022-10-02T23:22:43.700Z,10.70
2022-10-02T23:25:24.251Z,10.80
2022-10-02T23:28:08.659Z,10.80
2022-10-02T23:30:47.924Z,10.80
2022-10-02T23:33:39.989Z,10.80
2022-10-02T23:36:22.265Z,10.80
2022-10-02T23:39:15.068Z,10.80
2022-10-02T23:41:52.054Z,10.70
2022-10-02T23:44:43.626Z,10.70
2022-10-02T23:47:34.599Z,10.70
2022-10-02T23:50:01.620Z,10.70
2022-10-02T23:52:59.045Z,10.70
2022-10-02T23:55:59.280Z,10.80
2022-10-02T23:59:03.203Z,10.80
